createdAt,value
2019-03-24T00:01:10.394Z,14.83
2019-03-24T00:03:39.468Z,12.93
2019-03-24T00:06:08.567Z,14.47
2019-03-24T00:08:37.700Z,16.55
2019-03-24T00:11:08.312Z,18.15
2019-03-24T00:13:37.422Z,14.18
2019-03-24T00:16:06.517Z,15.98
2019-03-24T00:18:35.593Z,22.30
2019-03-24T00:21:04.725Z,19.62
2019-03-24T00:23:33.788Z,17.35
2019-03-24T00:26:02.878Z,15.38
2019-03-24T00:28:31.962Z,21.27
2019-03-24T00:31:01.109Z,14.50
2019-03-24T00:33:30.165Z,21.93
2019-03-24T00:35:59.332Z,22.07
2019-03-24T00:38:28.394Z,20.00
2019-03-24T00:40:57.515Z,17.67
2019-03-24T00:43:26.577Z,17.98
2019-03-24T00:45:55.631Z,19.85
2019-03-24T00:48:24.702Z,19.45
2019-03-24T00:50:53.841Z,16.15
2019-03-24T00:53:22.912Z,19.23
2019-03-24T00:55:52.023Z,15.40
2019-03-24T00:58:21.176Z,20.40
2019-03-24T01:00:52.116Z,20.80
2019-03-24T01:03:21.278Z,14.00
2019-03-24T01:05:50.390Z,20.08
2019-03-24T01:08:19.706Z,19.12
2019-03-24T01:10:48.834Z,17.73
2019-03-24T01:13:19.559Z,20.17
2019-03-24T01:15:48.943Z,15.20
2019-03-24T01:18:31.445Z,14.98
2019-03-24T01:21:01.488Z,26.45
2019-03-24T01:23:30.569Z,21.55
2019-03-24T01:25:59.649Z,22.37
2019-03-24T01:28:28.704Z,29.35
2019-03-24T01:30:57.757Z,18.95
2019-03-24T01:33:26.841Z,21.07
2019-03-24T01:35:55.900Z,14.78
2019-03-24T01:38:24.965Z,18.45
2019-03-24T01:40:54.088Z,11.53
2019-03-24T01:43:23.232Z,18.25
2019-03-24T01:45:58.470Z,15.03
2019-03-24T01:48:23.102Z,15.75
2019-03-24T01:50:52.161Z,14.13
2019-03-24T01:53:21.226Z,24.37
2019-03-24T01:55:50.299Z,25.55
2019-03-24T01:58:19.373Z,19.00
2019-03-24T02:00:48.438Z,20.40
2019-03-24T02:03:17.559Z,24.37
2019-03-24T02:05:46.653Z,18.02
2019-03-24T02:08:15.788Z,22.73
2019-03-24T02:10:44.841Z,24.87
2019-03-24T02:13:13.909Z,17.05
2019-03-24T02:15:42.971Z,12.37
2019-03-24T02:18:12.019Z,10.03
2019-03-24T02:20:41.106Z,7.03
2019-03-24T02:23:10.157Z,17.10
2019-03-24T02:25:39.253Z,13.38
2019-03-24T02:28:11.061Z,12.75
2019-03-24T02:30:40.132Z,15.48
2019-03-24T02:33:09.279Z,13.95
2019-03-24T02:35:38.409Z,15.18
2019-03-24T02:38:07.550Z,13.95
2019-03-24T02:40:36.605Z,15.35
2019-03-24T02:43:05.665Z,14.28
2019-03-24T02:45:34.736Z,20.68
2019-03-24T02:48:03.789Z,15.53
2019-03-24T02:50:32.937Z,14.70
2019-03-24T02:53:02.015Z,16.42
2019-03-24T02:55:31.116Z,16.25
2019-03-24T02:58:00.234Z,19.32
2019-03-24T03:00:29.293Z,19.52
2019-03-24T03:02:58.364Z,12.43
2019-03-24T03:05:27.499Z,12.73
2019-03-24T03:07:56.639Z,17.07
2019-03-24T03:10:26.171Z,11.53
2019-03-24T03:12:55.500Z,11.18
2019-03-24T03:15:24.632Z,8.70
2019-03-24T03:17:55.226Z,10.55
2019-03-24T03:20:24.334Z,10.03
2019-03-24T03:22:53.378Z,10.70
2019-03-24T03:25:22.522Z,12.55
2019-03-24T03:27:51.565Z,14.28
2019-03-24T03:30:20.833Z,11.65
2019-03-24T03:32:49.953Z,8.20
2019-03-24T03:35:19.086Z,9.03
2019-03-24T03:37:48.208Z,6.95
2019-03-24T03:40:17.318Z,6.33
2019-03-24T03:42:46.448Z,9.13
2019-03-24T03:45:18.933Z,10.60
2019-03-24T03:47:48.293Z,12.15
2019-03-24T03:50:17.364Z,11.08
2019-03-24T03:52:46.483Z,14.70
2019-03-24T03:55:15.512Z,8.78
2019-03-24T03:57:44.574Z,8.33
2019-03-24T04:00:14.374Z,26.33
2019-03-24T04:02:43.493Z,31.02
2019-03-24T04:05:12.675Z,24.50
2019-03-24T04:07:41.752Z,29.45
2019-03-24T04:10:10.882Z,12.15
2019-03-24T04:12:39.973Z,13.30
2019-03-24T04:15:09.303Z,12.25
2019-03-24T04:17:38.381Z,17.37
2019-03-24T04:20:08.267Z,16.05
2019-03-24T04:22:37.407Z,14.55
2019-03-24T04:25:07.169Z,15.28
2019-03-24T04:27:36.290Z,16.87
2019-03-24T04:30:07.757Z,15.48
2019-03-24T04:32:36.892Z,17.73
2019-03-24T04:35:07.993Z,18.05
2019-03-24T04:37:37.142Z,17.87
2019-03-24T04:40:09.122Z,24.77
2019-03-24T04:42:38.208Z,18.32
2019-03-24T04:45:07.524Z,16.97
2019-03-24T04:47:36.655Z,25.12
2019-03-24T04:50:08.922Z,17.15
2019-03-24T04:52:39.653Z,24.67
2019-03-24T04:55:08.950Z,19.05
2019-03-24T04:57:38.016Z,12.00
2019-03-24T05:00:08.611Z,16.23
2019-03-24T05:02:37.693Z,20.27
2019-03-24T05:05:07.597Z,12.43
2019-03-24T05:07:37.020Z,15.00
2019-03-24T05:10:08.869Z,23.47
2019-03-24T05:12:37.929Z,25.25
2019-03-24T05:15:07.215Z,18.52
2019-03-24T05:17:36.363Z,19.62
2019-03-24T05:20:06.673Z,20.43
2019-03-24T05:22:35.806Z,20.72
2019-03-24T05:25:05.328Z,13.83
2019-03-24T05:27:34.392Z,18.57
2019-03-24T05:30:06.686Z,16.00
2019-03-24T05:32:35.761Z,20.55
2019-03-24T05:35:07.731Z,15.25
2019-03-24T05:37:36.806Z,15.98
2019-03-24T05:40:06.317Z,15.68
2019-03-24T05:42:35.364Z,11.33
2019-03-24T05:45:06.583Z,15.18
2019-03-24T05:47:37.447Z,16.17
2019-03-24T05:50:08.132Z,21.80
2019-03-24T05:52:37.203Z,20.68
2019-03-24T05:55:07.285Z,16.87
2019-03-24T05:57:36.351Z,21.52
2019-03-24T06:00:08.895Z,20.77
2019-03-24T06:02:38.155Z,18.05
2019-03-24T06:05:07.607Z,14.23
2019-03-24T06:07:36.668Z,17.10
2019-03-24T06:10:07.077Z,22.73
2019-03-24T06:12:36.126Z,15.08
2019-03-24T06:15:08.121Z,18.25
2019-03-24T06:17:47.134Z,18.30
2019-03-24T06:20:08.981Z,18.90
2019-03-24T06:22:38.114Z,18.87
2019-03-24T06:25:07.487Z,17.55
2019-03-24T06:27:36.624Z,19.05
2019-03-24T06:30:07.723Z,21.30
2019-03-24T06:32:36.776Z,19.80
2019-03-24T06:35:06.818Z,15.00
2019-03-24T06:37:36.253Z,16.15
2019-03-24T06:40:06.370Z,17.85
2019-03-24T06:42:35.497Z,18.07
2019-03-24T06:45:06.268Z,17.50
2019-03-24T06:47:35.417Z,20.65
2019-03-24T06:50:08.651Z,16.07
2019-03-24T06:52:37.740Z,20.70
2019-03-24T06:55:07.041Z,24.10
2019-03-24T06:57:36.167Z,24.37
2019-03-24T07:00:09.638Z,22.65
2019-03-24T07:02:39.279Z,19.02
2019-03-24T07:05:08.580Z,16.32
2019-03-24T07:07:37.720Z,21.30
2019-03-24T07:10:08.389Z,23.70
2019-03-24T07:12:37.639Z,21.42
2019-03-24T07:15:07.998Z,22.70
2019-03-24T07:17:37.724Z,25.97
2019-03-24T07:20:07.483Z,19.62
2019-03-24T07:22:36.564Z,23.20
2019-03-24T07:25:06.849Z,21.45
2019-03-24T07:27:35.923Z,22.00
2019-03-24T07:30:10.313Z,19.75
2019-03-24T07:32:39.101Z,29.03
2019-03-24T07:35:08.256Z,27.77
2019-03-24T07:37:37.306Z,26.35
2019-03-24T07:40:08.891Z,20.45
2019-03-24T07:42:37.981Z,21.80
2019-03-24T07:45:08.362Z,26.87
2019-03-24T07:47:37.504Z,28.25
2019-03-24T07:50:08.190Z,27.15
2019-03-24T07:52:37.264Z,19.50
2019-03-24T07:55:07.643Z,27.48
2019-03-24T07:57:36.718Z,24.30
2019-03-24T08:00:08.343Z,29.00
2019-03-24T08:02:37.559Z,31.93
2019-03-24T08:05:06.857Z,25.37
2019-03-24T08:07:43.290Z,22.35
2019-03-24T08:10:12.323Z,26.20
2019-03-24T08:12:41.407Z,31.90
2019-03-24T08:15:10.660Z,26.17
2019-03-24T08:17:39.698Z,26.35
2019-03-24T08:20:08.891Z,25.65
2019-03-24T08:22:38.010Z,22.90
2019-03-24T08:25:07.234Z,21.65
2019-03-24T08:27:36.297Z,28.40
2019-03-24T08:30:07.281Z,27.48
2019-03-24T08:32:36.348Z,20.00
2019-03-24T08:35:06.450Z,28.65
2019-03-24T08:37:35.640Z,21.65
2019-03-24T08:40:07.307Z,21.25
2019-03-24T08:42:36.444Z,24.52
2019-03-24T08:45:06.341Z,25.80
2019-03-24T08:47:35.492Z,18.17
2019-03-24T08:50:06.475Z,19.75
2019-03-24T08:52:35.541Z,25.32
2019-03-24T08:55:06.123Z,29.20
2019-03-24T08:57:35.198Z,24.05
2019-03-24T09:00:06.082Z,21.55
2019-03-24T09:02:35.162Z,25.08
2019-03-24T09:05:06.532Z,24.67
2019-03-24T09:07:35.645Z,29.35
2019-03-24T09:10:06.054Z,18.40
2019-03-24T09:12:35.113Z,22.70
2019-03-24T09:15:06.228Z,26.33
2019-03-24T09:17:35.407Z,23.62
2019-03-24T09:20:05.745Z,23.60
2019-03-24T09:22:34.798Z,20.20
2019-03-24T09:25:05.608Z,25.57
2019-03-24T09:27:34.730Z,22.42
2019-03-24T09:30:04.767Z,20.43
2019-03-24T09:32:33.832Z,19.98
2019-03-24T09:35:03.078Z,21.12
2019-03-24T09:37:32.136Z,18.37
2019-03-24T09:40:01.238Z,22.55
2019-03-24T09:42:30.366Z,15.95
2019-03-24T09:44:59.500Z,18.30
2019-03-24T09:47:28.608Z,23.32
2019-03-24T09:49:57.659Z,20.97
2019-03-24T09:52:26.709Z,22.22
2019-03-24T09:54:55.781Z,14.65
2019-03-24T09:57:24.835Z,18.27
2019-03-24T09:59:53.898Z,18.05
2019-03-24T10:02:22.988Z,12.33
2019-03-24T10:04:52.070Z,15.08
2019-03-24T10:07:21.146Z,14.28
2019-03-24T10:09:50.211Z,12.95
2019-03-24T10:12:19.295Z,15.53
2019-03-24T10:14:48.365Z,14.73
2019-03-24T10:17:17.436Z,13.05
2019-03-24T10:19:46.528Z,14.58
2019-03-24T10:22:16.053Z,15.68
2019-03-24T10:24:45.219Z,15.98
2019-03-24T10:27:14.292Z,15.23
2019-03-24T10:29:43.396Z,15.43
2019-03-24T10:32:12.453Z,14.38
2019-03-24T10:34:41.511Z,14.13
2019-03-24T10:37:10.585Z,15.05
2019-03-24T10:39:39.705Z,15.58
2019-03-24T10:42:08.837Z,16.50
2019-03-24T10:44:40.277Z,12.15
2019-03-24T10:47:08.696Z,14.87
2019-03-24T10:49:37.756Z,13.55
2019-03-24T10:52:06.824Z,13.83
2019-03-24T10:54:35.890Z,16.87
2019-03-24T10:57:05.467Z,10.93
2019-03-24T10:59:34.625Z,15.25
2019-03-24T11:02:03.694Z,11.75
2019-03-24T11:04:32.743Z,12.75
2019-03-24T11:07:01.806Z,11.60
2019-03-24T11:09:30.852Z,15.30
2019-03-24T11:11:59.992Z,11.65
2019-03-24T11:14:29.045Z,10.60
2019-03-24T11:16:58.117Z,14.53
2019-03-24T11:19:35.294Z,10.13
2019-03-24T11:21:58.012Z,13.53
2019-03-24T11:24:27.053Z,12.47
2019-03-24T11:26:56.113Z,11.18
2019-03-24T11:29:25.254Z,12.13
2019-03-24T11:31:54.413Z,11.12
2019-03-24T11:34:23.460Z,11.73
2019-03-24T11:36:52.513Z,12.37
2019-03-24T11:39:21.569Z,11.57
2019-03-24T11:41:50.629Z,10.13
2019-03-24T11:44:19.733Z,9.83
2019-03-24T11:46:48.804Z,12.20
2019-03-24T11:49:18.910Z,9.65
2019-03-24T11:51:47.956Z,9.23
2019-03-24T11:54:17.030Z,9.18
2019-03-24T11:56:46.197Z,12.47
2019-03-24T11:59:15.283Z,11.25
2019-03-24T12:01:44.448Z,12.35
2019-03-24T12:04:13.536Z,9.60
2019-03-24T12:06:42.577Z,8.45
2019-03-24T12:09:11.648Z,10.08
2019-03-24T12:11:40.727Z,13.98
2019-03-24T12:14:09.878Z,14.23
2019-03-24T12:16:38.929Z,9.08
2019-03-24T12:19:07.997Z,8.73
2019-03-24T12:21:37.049Z,12.25
2019-03-24T12:24:06.113Z,9.23
2019-03-24T12:26:35.160Z,9.05
2019-03-24T12:29:04.230Z,14.95
2019-03-24T12:31:33.268Z,12.58
2019-03-24T12:34:02.460Z,9.00
2019-03-24T12:36:31.514Z,10.30
2019-03-24T12:39:04.718Z,8.63
2019-03-24T12:41:33.758Z,7.22
2019-03-24T12:44:02.993Z,9.83
2019-03-24T12:46:32.044Z,11.33
2019-03-24T12:49:01.100Z,8.58
2019-03-24T12:51:30.141Z,9.18
2019-03-24T12:53:59.225Z,10.23
2019-03-24T12:56:28.347Z,9.25
2019-03-24T12:58:57.429Z,8.18
2019-03-24T13:01:27.527Z,11.18
2019-03-24T13:03:56.582Z,9.43
2019-03-24T13:06:25.891Z,10.53
2019-03-24T13:08:55.016Z,12.35
2019-03-24T13:11:24.152Z,10.98
2019-03-24T13:13:53.280Z,9.70
2019-03-24T13:16:22.403Z,14.18
2019-03-24T13:18:51.521Z,11.83
2019-03-24T13:21:20.619Z,13.72
2019-03-24T13:23:49.677Z,12.47
2019-03-24T13:26:18.843Z,12.98
2019-03-24T13:28:47.912Z,10.40
2019-03-24T13:31:18.681Z,15.88
2019-03-24T13:33:47.753Z,17.95
2019-03-24T13:36:16.816Z,15.45
2019-03-24T13:38:45.877Z,10.75
2019-03-24T13:41:14.944Z,12.05
2019-03-24T13:43:43.995Z,18.70
2019-03-24T13:46:13.074Z,16.12
2019-03-24T13:48:42.214Z,15.80
2019-03-24T13:51:12.650Z,14.65
2019-03-24T13:53:41.686Z,15.13
2019-03-24T13:56:10.756Z,14.00
2019-03-24T13:58:39.806Z,11.75
2019-03-24T14:01:10.107Z,12.05
2019-03-24T14:03:39.151Z,16.50
2019-03-24T14:06:08.226Z,16.42
2019-03-24T14:08:37.301Z,20.80
2019-03-24T14:11:06.374Z,16.52
2019-03-24T14:13:35.430Z,12.13
2019-03-24T14:16:04.492Z,14.35
2019-03-24T14:18:33.547Z,16.77
2019-03-24T14:21:02.623Z,13.35
2019-03-24T14:23:31.682Z,15.58
2019-03-24T14:26:00.752Z,15.23
2019-03-24T14:28:29.892Z,11.80
2019-03-24T14:30:58.977Z,15.68
2019-03-24T14:33:28.098Z,14.18
2019-03-24T14:35:57.190Z,16.73
2019-03-24T14:38:26.262Z,12.80
2019-03-24T14:40:55.352Z,13.65
2019-03-24T14:43:24.398Z,12.65
2019-03-24T14:45:53.462Z,11.40
2019-03-24T14:48:22.523Z,10.80
2019-03-24T14:50:54.884Z,11.85
2019-03-24T14:53:22.665Z,13.35
2019-03-24T14:55:51.806Z,14.28
2019-03-24T14:58:20.946Z,11.90
2019-03-24T15:00:51.261Z,9.73
2019-03-24T15:03:20.370Z,12.00
2019-03-24T15:05:49.482Z,10.90
2019-03-24T15:08:18.603Z,17.40
2019-03-24T15:10:47.694Z,13.93
2019-03-24T15:13:16.760Z,11.12
2019-03-24T15:15:45.832Z,11.85
2019-03-24T15:18:14.893Z,13.93
2019-03-24T15:20:43.955Z,19.32
2019-03-24T15:23:13.020Z,15.68
2019-03-24T15:25:42.073Z,19.98
2019-03-24T15:28:11.141Z,15.08
2019-03-24T15:30:40.268Z,11.68
2019-03-24T15:33:09.338Z,11.90
2019-03-24T15:35:38.456Z,11.45
2019-03-24T15:38:08.923Z,14.50
2019-03-24T15:40:38.219Z,12.85
2019-03-24T15:43:07.311Z,16.93
2019-03-24T15:45:36.372Z,19.17
2019-03-24T15:48:05.526Z,14.83
2019-03-24T15:50:34.577Z,17.60
2019-03-24T15:53:03.718Z,12.40
2019-03-24T15:55:32.762Z,13.13
2019-03-24T15:58:01.838Z,15.32
2019-03-24T16:00:45.303Z,14.53
2019-03-24T16:03:14.430Z,12.58
2019-03-24T16:05:43.477Z,14.80
2019-03-24T16:08:12.541Z,23.02
2019-03-24T16:10:41.688Z,13.48
2019-03-24T16:13:10.757Z,22.05
2019-03-24T16:15:39.854Z,15.40
2019-03-24T16:18:08.918Z,14.35
2019-03-24T16:20:46.982Z,14.45
2019-03-24T16:23:17.276Z,15.43
2019-03-24T16:25:46.341Z,15.40
2019-03-24T16:28:15.471Z,17.02
2019-03-24T16:30:44.621Z,13.78
2019-03-24T16:33:13.680Z,14.43
2019-03-24T16:35:42.753Z,21.60
2019-03-24T16:38:11.812Z,17.95
2019-03-24T16:40:41.560Z,16.75
2019-03-24T16:43:10.791Z,14.35
2019-03-24T16:45:39.885Z,14.93
2019-03-24T16:48:11.745Z,21.87
2019-03-24T16:50:40.829Z,18.42
2019-03-24T16:53:09.902Z,20.10
2019-03-24T16:55:39.126Z,16.97
2019-03-24T16:58:08.152Z,17.17
2019-03-24T17:00:37.208Z,20.97
2019-03-24T17:03:06.325Z,18.32
2019-03-24T17:05:35.404Z,18.92
2019-03-24T17:08:04.464Z,22.48
2019-03-24T17:10:33.654Z,13.30
2019-03-24T17:13:02.715Z,23.85
2019-03-24T17:15:31.782Z,19.82
2019-03-24T17:18:00.841Z,21.90
2019-03-24T17:20:29.981Z,23.73
2019-03-24T17:22:59.044Z,18.48
2019-03-24T17:25:28.116Z,19.77
2019-03-24T17:27:57.178Z,14.05
2019-03-24T17:30:26.307Z,22.30
2019-03-24T17:32:55.367Z,21.17
2019-03-24T17:35:24.428Z,24.40
2019-03-24T17:37:53.511Z,18.12
2019-03-24T17:40:22.578Z,18.42
2019-03-24T17:42:51.628Z,16.93
2019-03-24T17:45:20.716Z,24.30
2019-03-24T17:47:49.840Z,22.45
2019-03-24T17:50:20.289Z,18.90
2019-03-24T17:52:49.332Z,20.88
2019-03-24T17:55:27.085Z,19.25
2019-03-24T17:57:49.191Z,23.22
2019-03-24T18:00:23.816Z,18.45
2019-03-24T18:02:52.929Z,29.82
2019-03-24T18:05:22.025Z,24.45
2019-03-24T18:07:51.073Z,23.12
2019-03-24T18:10:20.129Z,17.92
2019-03-24T18:12:51.301Z,19.77
2019-03-24T18:15:20.389Z,18.82
2019-03-24T18:17:49.462Z,20.88
2019-03-24T18:20:31.311Z,18.75
2019-03-24T18:23:00.480Z,19.98
2019-03-24T18:25:29.596Z,19.95
2019-03-24T18:27:58.703Z,21.93
2019-03-24T18:30:27.936Z,23.30
2019-03-24T18:32:58.785Z,29.32
2019-03-24T18:35:27.862Z,16.23
2019-03-24T18:37:56.920Z,17.05
2019-03-24T18:40:25.992Z,20.45
2019-03-24T18:42:55.092Z,18.05
2019-03-24T18:45:24.304Z,23.25
2019-03-24T18:47:53.421Z,24.18
2019-03-24T18:50:22.540Z,21.42
2019-03-24T18:52:51.606Z,24.25
2019-03-24T18:55:20.666Z,23.22
2019-03-24T18:57:49.732Z,17.17
2019-03-24T19:00:19.437Z,18.60
2019-03-24T19:02:48.517Z,20.82
2019-03-24T19:05:17.816Z,21.70
2019-03-24T19:07:46.883Z,23.35
2019-03-24T19:10:16.982Z,23.92
2019-03-24T19:12:46.054Z,24.65
2019-03-24T19:15:16.068Z,26.33
2019-03-24T19:17:45.182Z,22.07
2019-03-24T19:20:14.970Z,22.20
2019-03-24T19:22:44.040Z,20.23
2019-03-24T19:25:13.338Z,20.27
2019-03-24T19:27:42.410Z,17.67
2019-03-24T19:30:14.179Z,21.33
2019-03-24T19:35:48.180Z,28.12
2019-03-24T19:38:18.096Z,24.55
2019-03-24T19:40:47.153Z,23.18
2019-03-24T19:43:16.278Z,25.95
2019-03-24T19:45:45.337Z,18.07
2019-03-24T19:48:14.421Z,21.93
2019-03-24T19:50:43.490Z,16.87
2019-03-24T19:53:12.556Z,17.70
2019-03-24T19:55:41.604Z,21.10
2019-03-24T19:58:10.673Z,23.80
2019-03-24T20:00:39.893Z,17.23
2019-03-24T20:03:09.083Z,28.65
2019-03-24T20:05:38.223Z,23.15
2019-03-24T20:08:13.361Z,22.67
2019-03-24T20:10:42.428Z,20.95
2019-03-24T20:13:11.505Z,19.48
2019-03-24T20:15:40.596Z,22.90
2019-03-24T20:18:09.675Z,20.45
2019-03-24T20:20:38.826Z,20.95
2019-03-24T20:23:07.936Z,27.55
2019-03-24T20:25:37.011Z,20.60
2019-03-24T20:28:06.147Z,19.73
2019-03-24T20:30:35.214Z,23.57
2019-03-24T20:33:04.281Z,21.65
2019-03-24T20:35:33.410Z,22.25
2019-03-24T20:38:02.539Z,21.82
2019-03-24T20:40:50.966Z,22.73
2019-03-24T20:43:20.053Z,27.42
2019-03-24T20:45:49.178Z,22.98
2019-03-24T20:48:18.237Z,21.02
2019-03-24T20:50:55.948Z,17.45
2019-03-24T20:53:24.998Z,17.75
2019-03-24T20:55:54.060Z,22.60
2019-03-24T20:58:23.112Z,19.98
2019-03-24T21:00:53.724Z,21.25
2019-03-24T21:03:22.784Z,14.23
2019-03-24T21:05:51.904Z,20.75
2019-03-24T21:08:20.991Z,17.55
2019-03-24T21:10:50.048Z,22.95
2019-03-24T21:13:19.097Z,17.40
2019-03-24T21:15:48.180Z,19.70
2019-03-24T21:18:17.233Z,22.00
2019-03-24T21:20:46.314Z,19.12
2019-03-24T21:23:15.367Z,25.52
2019-03-24T21:25:44.436Z,16.77
2019-03-24T21:28:13.489Z,17.62
2019-03-24T21:30:42.696Z,17.98
2019-03-24T21:33:11.744Z,16.02
2019-03-24T21:35:40.897Z,16.73
2019-03-24T21:38:09.960Z,19.90
2019-03-24T21:40:39.024Z,23.85
2019-03-24T21:43:08.074Z,19.23
2019-03-24T21:45:37.262Z,21.48
2019-03-24T21:48:06.360Z,16.27
2019-03-24T21:50:35.467Z,14.25
2019-03-24T21:53:07.732Z,17.98
2019-03-24T21:55:36.871Z,19.15
2019-03-24T21:58:06.077Z,17.60
2019-03-24T22:00:36.036Z,17.23
2019-03-24T22:03:05.652Z,17.85
2019-03-24T22:05:34.866Z,18.20
2019-03-24T22:08:04.132Z,23.18
2019-03-24T22:10:33.249Z,13.18
2019-03-24T22:13:02.404Z,16.27
2019-03-24T22:15:31.520Z,19.23
2019-03-24T22:18:00.742Z,16.27
2019-03-24T22:20:29.860Z,20.23
2019-03-24T22:22:59.027Z,18.42
2019-03-24T22:25:28.179Z,21.70
2019-03-24T22:27:57.334Z,28.40
2019-03-24T22:30:29.449Z,19.48
2019-03-24T22:32:58.751Z,16.60
2019-03-24T22:35:27.909Z,21.48
2019-03-24T22:37:57.103Z,20.62
2019-03-24T22:40:28.595Z,17.75
2019-03-24T22:42:57.079Z,26.10
2019-03-24T22:45:26.219Z,17.37
2019-03-24T22:47:55.362Z,22.90
2019-03-24T22:50:27.524Z,24.55
2019-03-24T22:52:56.610Z,17.95
2019-03-24T22:55:25.939Z,18.48
2019-03-24T22:57:55.147Z,22.07
2019-03-24T23:00:36.453Z,21.50
2019-03-24T23:03:05.554Z,20.65
2019-03-24T23:05:34.740Z,16.32
2019-03-24T23:08:03.888Z,17.10
2019-03-24T23:10:33.106Z,17.42
2019-03-24T23:13:02.399Z,21.50
2019-03-24T23:15:31.530Z,13.18
2019-03-24T23:18:00.715Z,22.45
2019-03-24T23:20:29.848Z,22.02
2019-03-24T23:23:01.136Z,23.27
2019-03-24T23:25:30.318Z,24.47
2019-03-24T23:27:59.505Z,24.77
2019-03-24T23:30:28.631Z,17.82
2019-03-24T23:32:57.699Z,27.10
2019-03-24T23:35:26.872Z,17.67
2019-03-24T23:37:56.045Z,22.55
2019-03-24T23:40:25.201Z,31.35
2019-03-24T23:42:56.675Z,25.40
2019-03-24T23:45:25.814Z,26.45
2019-03-24T23:47:56.215Z,21.85
2019-03-24T23:50:25.440Z,15.38
2019-03-24T23:52:54.581Z,16.70
2019-03-24T23:55:23.749Z,5.55
2019-03-24T23:57:52.820Z,8.40
